Station CHII2 - Harrison-Dever Crib, Chicago, IL Image indicating link to RSS feed of recent meteorological observations for station CHII2


Conditions at CHII2 as of
(3:20 am CDT)
0820 GMT on 04/17/2024:
     

Click on the graph icon in the table below to see a time series plot of the last five days of that observation.

5-day plot - Wind Direction Wind Direction (WDIR): S ( 180 deg true )
5-day plot - Wind Speed Wind Speed (WSPD): 22 kts
5-day plot - Wind Gust Wind Gust (GST): 24 kts
5-day plot - Air Temperature Air Temperature (ATMP): 66.4 °F
5-day plot - Dew Point Dew Point (DEWP): 64.8 °F
5-day plot -  Wind Speed, Wind Gust and Atmospheric Pressure Combined plot of Wind Speed, Gust, and Air Pressure
Previous observations
TIME
(CDT)
5-day plot - Wind Direction
WDIR
 
5-day plot - Wind Speed
WSPD
kts
5-day plot - Wind Gust
GST
kts
5-day plot - Wave Height
WVHT
ft
5-day plot - Dominant Wave Period
DPD
sec
5-day plot - Average Wave Period
APD
sec
5-day plot - Mean Wave Direction
MWD
 
5-day plot - Atmospheric Pressure
PRES
in
5-day plot - Pressure Tendency
PTDY
in
5-day plot - Air Temperature
ATMP
°F
5-day plot - Water Temperature
WTMP
°F
5-day plot - Dew Point
DEWP
°F
5-day plot - Salinity
SAL
psu
5-day plot - Visibility
VIS
nmi
5-day plot - Tide (above MLLW)
TIDE
ft
2024-04-17 03:10 am S 22 23------ 66.4- 64.9---
2024-04-17 03:00 am S 23 23------ 64.8- 63.7---
2024-04-17 02:50 am S 23 24------ 64.9- 63.5---
2024-04-17 02:40 am S 25 26------ 66.2- 64.0---
2024-04-17 02:30 am S 23 25------ 63.3- 61.7---
2024-04-17 02:20 am S 22 25------ 62.6- 60.8---
2024-04-17 02:10 amSSE 21 22------ 62.1- 60.1---
2024-04-17 02:00 amSSE 22 23------ 62.6- 60.4---
2024-04-17 01:50 amSSE 22 24------ 61.7- 59.7---
2024-04-17 01:40 amSSE 21 25------ 61.0- 59.7---
2024-04-17 01:30 amSSE 22 25------ 62.1- 60.4---
2024-04-17 01:20 amSSE 21 24------ 60.8- 59.2---
2024-04-17 01:10 amSSE 20 24------ 62.1- 59.7---
2024-04-17 01:00 am SE 24 25------ 59.9- 58.6---
2024-04-17 12:50 amSSE 21 22------ 59.4- 57.9---
2024-04-17 12:40 amSSE 20 22------ 59.9- 57.9---
2024-04-17 12:30 amSSE 20 21------ 59.0- 57.7---
2024-04-17 12:20 am SE 18 19------ 58.8- 57.6---
2024-04-17 12:10 am SE 19 19------ 59.2- 57.7---
2024-04-17 12:00 am SE 21 22------ 59.2- 57.6---
2024-04-16 11:50 pm SE 22 23------ 59.5- 57.7---
2024-04-16 11:40 pm SE 22 24------ 60.3- 58.1---
2024-04-16 11:30 pm SE 24 24------ 61.9- 59.7---
2024-04-16 11:20 pmSSE 24 26------ 61.0- 59.7---
2024-04-16 11:10 pmSSE 17 18------ 59.4- 57.9---
2024-04-16 11:00 pmSSE 21 23------ 62.1- 59.2---
2024-04-16 10:50 pm SE 28 28------ 63.3- 60.1---
2024-04-16 10:40 pmSSE 27 28------ 64.8- 60.8---
2024-04-16 10:30 pmSSE 28 29------ 66.7- 62.2---
2024-04-16 10:20 pmSSE 20 21------ 63.1- 59.9---
2024-04-16 10:10 pmSSE 21 23------ 63.3- 60.1---
2024-04-16 10:00 pmSSE 21 28------ 63.1- 59.2---
2024-04-16 09:50 pmSSE 21 24------ 65.5- 59.5---
2024-04-16 09:40 pmSSE 18 20------ 65.7- 61.2---
2024-04-16 09:30 pmSSE 26 28------ 65.3- 61.2---
2024-04-16 09:20 pmSSE 28 32------ 66.0- 59.9---
2024-04-16 09:10 pmSSE 31 35------ 66.2- 60.1---
2024-04-16 09:00 pmSSE 27 33------ 66.6- 58.5---
2024-04-16 08:50 pmSSE 21 22------ 63.9- 56.7---
2024-04-16 08:40 pmSSE 18 20------ 63.0- 55.9---
2024-04-16 08:30 pmSSE 21 22------ 68.5- 58.1---
2024-04-16 08:20 pmSSE 18 20------ 68.0- 58.1---
2024-04-16 08:10 pmSSE 17 19------ 69.8- 58.6---
2024-04-16 08:00 pm S 20 21------ 66.2- 57.7---
2024-04-16 07:50 pm S 18 20------ 64.2- 56.5---
2024-04-16 07:40 pmSSW 19 21------ 63.3- 56.7---
2024-04-16 07:30 pm SE 20 22------ 63.0- 56.7---
2024-04-16 07:20 pm SE 24 26------ 63.5- 56.7---
2024-04-16 07:10 pmESE 31 32------ 64.4- 57.6---
2024-04-16 07:00 pmESE 30 31------ 64.8- 57.2---
2024-04-16 06:50 pmESE 33 34------ 66.0- 58.5---
2024-04-16 06:40 pmESE 34 35------ 67.1- 59.5---
2024-04-16 06:30 pm SE 35 36------ 67.6- 59.5---
2024-04-16 06:20 pm SE 31 32------ 67.3- 58.8---
2024-04-16 06:10 pm SE 30 32------ 67.3- 58.8---
2024-04-16 06:00 pmSSE 24 26------ 67.1- 58.8---
2024-04-16 05:50 pm SE 25 27------ 67.8- 59.7---
2024-04-16 05:40 pmSSE 21 23------ 66.7- 59.2---
2024-04-16 05:30 pm SE 17 18------ 64.9- 58.3---
2024-04-16 05:20 pmSSE 14 15------ 65.3- 58.3---
2024-04-16 05:10 pm S 9 11------ 61.9- 55.9---
2024-04-16 05:00 pmSSE 7 13------ 60.8- 54.1---
2024-04-16 04:50 pm SE 18 19------ 62.2- 55.0---
2024-04-16 04:40 pm SE 22 23------ 62.4- 55.4---
2024-04-16 04:30 pm SE 20 20------ 62.4- 54.5---
2024-04-16 04:20 pmESE 23 24------ 63.5- 55.0---
2024-04-16 04:10 pmESE 27 28------ 64.8- 55.8---
2024-04-16 04:00 pmESE 23 24------ 60.8- 54.1---
2024-04-16 03:50 pmESE 22 25------ 60.3- 53.8---
2024-04-16 03:40 pmESE 21 22------ 61.0- 53.6---
2024-04-16 03:30 pm SE 23 24------ 63.1- 54.3---
2024-04-16 03:20 pmESE 19 21------ 59.7- 52.7---
2024-04-16 03:10 pmESE 22 23------ 60.3- 52.3---
2024-04-16 03:00 pmESE 24 25------ 60.4- 52.0---
2024-04-16 02:50 pmESE 21 22------ 59.9- 51.3---
2024-04-16 02:40 pmESE 22 23------ 61.0- 50.7---
2024-04-16 02:30 pmESE 23 23------ 59.2- 49.5---
2024-04-16 02:20 pmESE 22 23------ 59.7- 49.3---
2024-04-16 02:10 pmESE 23 24------ 58.8- 48.6---
2024-04-16 02:00 pm E 21 22------ 58.8- 48.6---
2024-04-16 01:50 pmESE 19 20------ 57.4- 48.2---
2024-04-16 01:40 pm E 20 20------ 58.1- 48.0---
2024-04-16 01:30 pm E 21 22------ 56.7- 47.7---
2024-04-16 01:20 pm E 21 22------ 56.7- 47.3---
2024-04-16 01:10 pm E 20 21------ 55.9- 46.9---
2024-04-16 01:00 pm E 19 21------ 56.1- 46.9---
2024-04-16 12:50 pm E 19 21------ 55.4- 46.6---
2024-04-16 12:40 pm E 18 19------ 54.9- 46.6---
2024-04-16 12:30 pm E 17 18------ 54.3- 46.4---
2024-04-16 12:20 pm E 17 18------ 54.1- 46.2---
2024-04-16 12:10 pm E 16 17------ 54.0- 46.0---
2024-04-16 12:00 pm E 17 18------ 54.0- 45.9---
2024-04-16 11:50 am E 17 19------ 53.8- 45.7---
2024-04-16 11:40 am E 16 17------ 53.2- 45.5---
2024-04-16 11:30 am E 17 18------ 52.9- 45.3---
2024-04-16 11:20 amENE 18 20------ 52.7- 45.1---
2024-04-16 11:10 amENE 18 19------ 52.9- 45.1---
2024-04-16 11:00 am E 17 19------ 53.2- 44.6---
2024-04-16 10:50 am E 17 19------ 52.7- 44.6---
2024-04-16 10:40 am E 16 18------ 52.3- 44.8---
2024-04-16 10:30 am E 16 17------ 52.3- 44.6---
2024-04-16 10:20 am E 16 17------ 51.8- 44.6---
2024-04-16 10:10 am E 16 17------ 51.3- 44.6---
2024-04-16 10:00 am E 18 19------ 51.4- 44.4---
2024-04-16 09:50 am E 18 20------ 51.4- 44.4---
2024-04-16 09:40 am E 19 20------ 51.8- 44.1---
2024-04-16 09:30 am E 17 18------ 51.8- 44.1---
2024-04-16 09:20 am E 16 17------ 51.8- 43.9---
2024-04-16 09:10 am E 17 18------ 51.4- 43.9---
2024-04-16 09:00 am E 15 17------ 51.6- 43.5---
2024-04-16 08:50 am E 14 15------ 50.9- 43.7---
2024-04-16 08:40 am E 14 16------ 50.7- 43.5---
2024-04-16 08:30 am E 14 16------ 50.9- 43.3---
2024-04-16 08:20 am E 14 16------ 50.9- 43.3---
2024-04-16 08:10 am E 13 15------ 51.1- 43.3---
2024-04-16 08:00 am E 14 15------ 51.4- 43.0---
2024-04-16 07:50 am E 16 17------ 51.6- 42.6---
2024-04-16 07:40 am E 17 19------ 51.8- 42.4---
2024-04-16 07:30 am E 19 20------ 52.0- 42.3---
2024-04-16 07:20 am E 19 20------ 51.8- 42.4---
2024-04-16 07:10 am E 18 19------ 51.8- 42.4---
2024-04-16 07:00 am E 18 19------ 51.8- 42.4---
2024-04-16 06:50 am E 18 19------ 52.0- 42.4---
2024-04-16 06:40 am E 18 19------ 52.0- 42.4---
2024-04-16 06:30 am E 16 17------ 52.0- 42.6---
2024-04-16 06:20 am E 16 18------ 52.2- 42.4---
2024-04-16 06:10 am E 18 19------ 52.3- 42.4---
2024-04-16 06:00 am E 18 19------ 52.3- 42.6---
2024-04-16 05:50 am E 17 18------ 52.0- 43.0---
2024-04-16 05:40 am E 14 16------ 51.1- 43.9---
2024-04-16 05:30 am E 14 15------ 50.7- 44.2---
2024-04-16 05:20 am E 14 15------ 50.5- 44.1---
2024-04-16 05:10 am E 13 14------ 50.7- 44.1---
2024-04-16 05:00 am E 12 13------ 50.7- 44.1---
2024-04-16 04:50 am E 12 13------ 50.4- 44.4---
2024-04-16 04:40 am E 13 17------ 50.9- 44.1---
2024-04-16 04:30 am E 13 13------ 51.1- 43.9---
2024-04-16 04:20 am E 12 13------ 50.9- 44.2---
2024-04-16 04:10 amENE 15 16------ 51.1- 44.1---
2024-04-16 04:00 am E 16 16------ 51.6- 43.7---
2024-04-16 03:50 amENE 17 18------ 52.2- 43.3---
2024-04-16 03:40 amENE 17 18------ 52.2- 43.3---
2024-04-16 03:30 amENE 17 18------ 52.3- 43.3---
2024-04-16 03:20 am E 14 16------ 52.2- 43.2---
2024-04-16 03:10 am E 10 11------ 51.4- 43.3---
2024-04-16 03:00 am E 11 12------ 51.1- 43.2---
2024-04-16 02:50 am E 12 14------ 51.3- 42.8---